createdAt,value
2017-07-22T00:01:12.933Z,48.63
2017-07-22T00:03:40.464Z,48.65
2017-07-22T00:06:07.986Z,48.66
2017-07-22T00:08:35.470Z,48.66
2017-07-22T00:11:02.980Z,48.67
2017-07-22T00:13:30.599Z,48.67
2017-07-22T00:15:58.120Z,48.67
2017-07-22T00:18:25.620Z,48.70
2017-07-22T00:20:53.141Z,48.70
2017-07-22T00:23:20.645Z,48.72
2017-07-22T00:25:48.172Z,48.73
2017-07-22T00:28:15.712Z,48.72
2017-07-22T00:30:43.196Z,48.74
2017-07-22T00:33:10.713Z,48.76
2017-07-22T00:35:38.207Z,48.76
2017-07-22T00:38:05.822Z,48.79
2017-07-22T00:40:33.421Z,48.79
2017-07-22T00:43:00.940Z,48.78
2017-07-22T00:45:28.456Z,48.78
2017-07-22T00:47:56.025Z,48.83
2017-07-22T00:50:23.529Z,48.81
2017-07-22T00:52:51.052Z,48.81
2017-07-22T00:55:18.540Z,48.81
2017-07-22T00:57:46.026Z,48.83
2017-07-22T01:00:13.640Z,48.83
2017-07-22T01:02:41.128Z,48.83
2017-07-22T01:05:08.668Z,48.82
2017-07-22T01:07:36.167Z,48.83
2017-07-22T01:10:03.693Z,48.84
2017-07-22T01:12:31.249Z,48.84
2017-07-22T01:14:58.837Z,48.85
2017-07-22T01:20:19.361Z,48.87
2017-07-22T01:22:46.848Z,48.89
2017-07-22T01:25:14.373Z,48.91
2017-07-22T01:27:41.864Z,48.91
2017-07-22T01:30:09.356Z,48.93
2017-07-22T01:32:36.872Z,48.93
2017-07-22T01:35:04.383Z,48.95
2017-07-22T01:37:31.904Z,48.99
2017-07-22T01:39:59.408Z,49.01
2017-07-22T01:42:26.925Z,49.03
2017-07-22T01:44:54.408Z,49.08
2017-07-22T01:50:14.844Z,49.08
2017-07-22T01:52:42.362Z,49.11
2017-07-22T01:55:09.861Z,49.16
2017-07-22T01:57:37.465Z,49.17
2017-07-22T02:00:04.948Z,49.22
2017-07-22T02:02:32.508Z,49.26
2017-07-22T02:04:59.996Z,49.36
2017-07-22T02:07:27.488Z,49.41
2017-07-22T02:09:55.003Z,49.46
2017-07-22T02:12:22.496Z,49.59
2017-07-22T02:14:50.028Z,49.61
2017-07-22T02:20:10.492Z,49.74
2017-07-22T02:22:37.984Z,49.88
2017-07-22T02:25:05.504Z,49.86
2017-07-22T02:27:33.004Z,49.88
2017-07-22T02:30:00.653Z,50.01
2017-07-22T02:32:28.158Z,50.03
2017-07-22T02:34:55.697Z,50.16
2017-07-22T02:37:23.796Z,50.28
2017-07-22T02:39:51.292Z,50.41
2017-07-22T02:42:18.857Z,50.39
2017-07-22T02:44:46.340Z,50.52
2017-07-22T02:50:06.784Z,50.63
2017-07-22T02:52:34.311Z,50.67
2017-07-22T02:55:01.802Z,50.75
2017-07-22T02:57:29.333Z,50.68
2017-07-22T02:59:56.841Z,50.79
2017-07-22T03:02:24.424Z,50.82
2017-07-22T03:04:51.940Z,50.83
2017-07-22T03:07:19.452Z,50.88
2017-07-22T03:09:46.960Z,50.93
2017-07-22T03:12:14.473Z,50.98
2017-07-22T03:14:42.756Z,51.02
2017-07-22T03:20:03.289Z,51.10
2017-07-22T03:22:30.821Z,51.11
2017-07-22T03:24:58.324Z,51.15
2017-07-22T03:27:25.875Z,51.17
2017-07-22T03:29:53.457Z,51.21
2017-07-22T03:32:21.037Z,51.25
2017-07-22T03:34:48.553Z,51.29
2017-07-22T03:37:16.100Z,51.31
2017-07-22T03:39:43.620Z,51.39
2017-07-22T03:42:11.106Z,51.41
2017-07-22T03:44:38.628Z,51.47
2017-07-22T03:49:59.032Z,51.55
2017-07-22T03:52:26.516Z,51.58
2017-07-22T03:54:54.024Z,51.59
2017-07-22T03:57:21.512Z,51.63
2017-07-22T03:59:49.157Z,51.67
2017-07-22T04:02:16.746Z,51.67
2017-07-22T04:04:44.280Z,51.73
2017-07-22T04:07:11.881Z,51.71
2017-07-22T04:09:39.400Z,51.76
2017-07-22T04:12:06.894Z,51.80
2017-07-22T04:14:34.385Z,51.84
2017-07-22T04:19:54.768Z,51.88
2017-07-22T04:22:22.283Z,51.90
2017-07-22T04:24:49.765Z,51.92
2017-07-22T04:27:17.288Z,51.96
2017-07-22T04:29:44.792Z,52.00
2017-07-22T04:32:12.304Z,52.08
2017-07-22T04:34:39.797Z,52.06
2017-07-22T04:37:07.342Z,52.09
2017-07-22T04:39:34.844Z,52.12
2017-07-22T04:42:02.360Z,52.10
2017-07-22T04:44:29.844Z,52.16
2017-07-22T04:46:57.333Z,52.17
2017-07-22T04:49:24.845Z,52.17
2017-07-22T04:51:52.328Z,52.24
2017-07-22T04:54:19.844Z,52.25
2017-07-22T04:56:47.357Z,52.32
2017-07-22T04:59:14.885Z,52.34
2017-07-22T05:01:42.376Z,52.34
2017-07-22T05:04:09.888Z,52.38
2017-07-22T05:06:37.382Z,52.38
2017-07-22T05:09:04.904Z,52.42
2017-07-22T05:11:32.939Z,52.45
2017-07-22T05:14:00.497Z,52.48
2017-07-22T05:16:27.980Z,52.49
2017-07-22T05:18:55.496Z,52.46
2017-07-22T05:21:22.996Z,52.55
2017-07-22T05:23:50.479Z,52.61
2017-07-22T05:26:17.988Z,52.63
2017-07-22T05:28:45.481Z,52.61
2017-07-22T05:31:12.996Z,52.63
2017-07-22T05:33:40.497Z,52.65
2017-07-22T05:36:08.022Z,52.67
2017-07-22T05:38:35.536Z,52.68
2017-07-22T05:41:03.062Z,52.67
2017-07-22T05:43:30.557Z,52.69
2017-07-22T05:45:58.092Z,52.71
2017-07-22T05:48:25.594Z,52.72
2017-07-22T05:50:53.145Z,52.72
2017-07-22T05:53:20.642Z,52.71
2017-07-22T05:55:48.142Z,52.71
2017-07-22T05:58:15.666Z,52.63
2017-07-22T06:00:43.195Z,52.71
2017-07-22T06:03:10.726Z,52.72
2017-07-22T06:05:38.230Z,52.64
2017-07-22T06:08:05.750Z,52.80
2017-07-22T06:10:33.245Z,52.75
2017-07-22T06:13:00.766Z,52.77
2017-07-22T06:15:28.261Z,52.78
2017-07-22T06:17:58.955Z,52.67
2017-07-22T06:20:26.466Z,52.71
2017-07-22T06:22:53.969Z,52.78
2017-07-22T06:25:21.489Z,52.68
2017-07-22T06:27:49.577Z,52.66
2017-07-22T06:30:17.103Z,52.68
2017-07-22T06:32:44.597Z,52.80
2017-07-22T06:35:12.130Z,52.37
2017-07-22T06:37:39.624Z,52.68
2017-07-22T06:40:07.149Z,52.48
2017-07-22T06:42:34.656Z,52.56
2017-07-22T06:45:02.181Z,52.58
2017-07-22T06:47:29.681Z,52.32
2017-07-22T06:49:57.209Z,52.49
2017-07-22T06:52:24.709Z,52.41
2017-07-22T06:54:52.238Z,52.50
2017-07-22T06:57:19.761Z,52.48
2017-07-22T06:59:47.253Z,52.42
2017-07-22T07:02:14.773Z,52.39
2017-07-22T07:04:42.266Z,52.35
2017-07-22T07:07:09.790Z,52.32
2017-07-22T07:09:37.320Z,52.30
2017-07-22T07:12:04.854Z,52.27
2017-07-22T07:14:32.349Z,52.26
2017-07-22T07:17:00.233Z,52.26
2017-07-22T07:19:27.738Z,52.21
2017-07-22T07:21:55.258Z,52.23
2017-07-22T07:24:22.761Z,52.21
2017-07-22T07:26:50.285Z,52.18
2017-07-22T07:29:17.774Z,52.15
2017-07-22T07:31:45.265Z,52.13
2017-07-22T07:34:12.785Z,52.07
2017-07-22T07:36:40.291Z,52.04
2017-07-22T07:39:07.818Z,52.10
2017-07-22T07:41:35.340Z,52.04
2017-07-22T07:44:02.863Z,52.02
2017-07-22T07:46:31.006Z,51.92
2017-07-22T07:48:58.531Z,53.79
2017-07-22T07:51:26.026Z,53.69
2017-07-22T07:53:53.575Z,54.02
2017-07-22T07:56:21.083Z,55.34
2017-07-22T07:58:48.883Z,54.75
2017-07-22T08:01:16.385Z,54.79
2017-07-22T08:03:43.996Z,54.34
2017-07-22T08:07:31.198Z,54.74
2017-07-22T08:09:58.759Z,56.19
2017-07-22T08:12:26.379Z,57.42
2017-07-22T08:14:53.934Z,57.88
2017-07-22T08:20:14.266Z,59.80
2017-07-22T08:22:41.864Z,59.52
2017-07-22T08:25:09.470Z,59.90
2017-07-22T08:27:36.981Z,60.94
2017-07-22T08:30:04.477Z,60.84
2017-07-22T08:32:32.090Z,60.09
2017-07-22T08:34:59.605Z,60.29
2017-07-22T08:37:27.174Z,61.09
2017-07-22T08:39:54.749Z,60.63
2017-07-22T08:42:22.289Z,60.90
2017-07-22T08:44:49.824Z,61.36
2017-07-22T08:50:09.729Z,61.68
2017-07-22T08:52:37.266Z,62.25
2017-07-22T08:55:04.877Z,61.98
2017-07-22T08:57:32.406Z,61.60
2017-07-22T08:59:59.905Z,64.57
2017-07-22T09:02:27.438Z,61.51
2017-07-22T09:04:54.947Z,61.11
2017-07-22T09:07:22.481Z,61.39
2017-07-22T09:09:50.026Z,61.74
2017-07-22T09:12:17.527Z,61.75
2017-07-22T09:14:45.069Z,61.56
2017-07-22T09:20:04.977Z,61.24
2017-07-22T09:22:32.548Z,61.05
2017-07-22T09:25:00.085Z,60.90
2017-07-22T09:27:27.589Z,60.77
2017-07-22T09:29:55.114Z,60.66
2017-07-22T09:32:22.614Z,60.53
2017-07-22T09:34:50.141Z,60.39
2017-07-22T09:37:17.638Z,60.29
2017-07-22T09:39:45.189Z,60.17
2017-07-22T09:42:12.699Z,60.08
2017-07-22T09:44:40.204Z,59.93
2017-07-22T09:50:00.351Z,59.71
2017-07-22T09:52:27.882Z,59.58
2017-07-22T09:54:55.373Z,59.47
2017-07-22T09:57:22.896Z,59.38
2017-07-22T09:59:50.400Z,59.27
2017-07-22T10:02:18.001Z,59.20
2017-07-22T10:04:45.505Z,59.09
2017-07-22T10:07:13.038Z,59.00
2017-07-22T10:09:40.542Z,58.95
2017-07-22T10:12:08.049Z,58.83
2017-07-22T10:14:35.579Z,58.75
2017-07-22T10:17:03.074Z,58.63
2017-07-22T10:19:30.598Z,58.58
2017-07-22T10:21:58.106Z,58.50
2017-07-22T10:24:25.634Z,58.39
2017-07-22T10:26:53.141Z,58.33
2017-07-22T10:29:20.720Z,58.22
2017-07-22T10:31:48.330Z,58.17
2017-07-22T10:34:15.878Z,58.11
2017-07-22T10:36:43.374Z,57.99
2017-07-22T10:39:10.869Z,57.86
2017-07-22T10:41:38.393Z,57.85
2017-07-22T10:44:05.895Z,57.95
2017-07-22T10:46:33.421Z,57.91
2017-07-22T10:49:00.926Z,57.81
2017-07-22T10:51:28.463Z,57.75
2017-07-22T10:53:55.961Z,57.78
2017-07-22T10:56:23.497Z,57.79
2017-07-22T10:58:50.989Z,57.85
2017-07-22T11:01:18.509Z,57.77
2017-07-22T11:03:46.005Z,57.63
2017-07-22T11:06:13.533Z,57.57
2017-07-22T11:08:41.033Z,57.57
2017-07-22T11:11:08.533Z,57.38
2017-07-22T11:13:36.063Z,57.34
2017-07-22T11:16:03.567Z,57.25
2017-07-22T11:18:31.098Z,57.22
2017-07-22T11:20:58.611Z,57.27
2017-07-22T11:23:26.214Z,57.25
2017-07-22T11:25:53.719Z,57.24
2017-07-22T11:28:21.254Z,57.09
2017-07-22T11:30:48.765Z,57.08
2017-07-22T11:33:16.299Z,56.99
2017-07-22T11:35:43.809Z,56.92
2017-07-22T11:38:11.346Z,56.98
2017-07-22T11:40:38.842Z,57.00
2017-07-22T11:43:06.347Z,57.05
2017-07-22T11:45:33.876Z,57.06
2017-07-22T11:48:01.378Z,57.12
2017-07-22T11:50:28.929Z,57.03
2017-07-22T11:52:56.486Z,56.97
2017-07-22T11:55:24.018Z,56.96
2017-07-22T11:57:51.517Z,56.99
2017-07-22T12:00:19.042Z,57.04
2017-07-22T12:02:46.537Z,57.04
2017-07-22T12:05:14.083Z,57.05
2017-07-22T12:07:41.597Z,57.06
2017-07-22T12:10:09.146Z,57.05
2017-07-22T12:12:36.638Z,57.01
2017-07-22T12:15:04.158Z,57.00
2017-07-22T12:20:24.467Z,57.08
2017-07-22T12:22:51.974Z,57.05
2017-07-22T12:25:19.481Z,57.11
2017-07-22T12:27:47.065Z,57.06
2017-07-22T12:30:14.566Z,57.12
2017-07-22T12:32:42.286Z,57.14
2017-07-22T12:35:09.786Z,57.18
2017-07-22T12:37:37.322Z,57.12
2017-07-22T12:40:04.830Z,57.14
2017-07-22T12:42:32.372Z,57.13
2017-07-22T12:44:59.885Z,57.07
2017-07-22T12:50:20.029Z,57.11
2017-07-22T12:52:47.562Z,57.06
2017-07-22T12:55:15.067Z,57.01
2017-07-22T12:57:43.789Z,56.94
2017-07-22T13:00:11.280Z,56.88
2017-07-22T13:02:38.918Z,56.85
2017-07-22T13:05:06.468Z,56.82
2017-07-22T13:07:33.972Z,56.79
2017-07-22T13:10:01.505Z,56.77
2017-07-22T13:12:28.997Z,56.74
2017-07-22T13:14:56.529Z,56.71
2017-07-22T13:20:16.734Z,56.66
2017-07-22T13:22:44.281Z,56.64
2017-07-22T13:25:11.839Z,56.59
2017-07-22T13:27:39.354Z,56.57
2017-07-22T13:30:06.882Z,56.59
2017-07-22T13:32:34.562Z,56.56
2017-07-22T13:35:02.154Z,56.57
2017-07-22T13:37:29.658Z,56.50
2017-07-22T13:39:57.206Z,56.53
2017-07-22T13:42:24.715Z,56.54
2017-07-22T13:44:52.221Z,56.52
2017-07-22T13:47:19.777Z,56.50
2017-07-22T13:49:47.278Z,56.49
2017-07-22T13:52:14.932Z,56.48
2017-07-22T13:54:42.425Z,56.46
2017-07-22T13:57:09.959Z,56.52
2017-07-22T13:59:37.455Z,56.54
2017-07-22T14:02:04.978Z,56.54
2017-07-22T14:04:32.486Z,56.50
2017-07-22T14:07:00.023Z,56.50
2017-07-22T14:09:27.529Z,56.49
2017-07-22T14:11:55.069Z,56.43
2017-07-22T14:14:22.602Z,56.48
2017-07-22T14:16:50.389Z,56.50
2017-07-22T14:19:17.987Z,56.53
2017-07-22T14:21:45.485Z,56.58
2017-07-22T14:24:13.017Z,56.57
2017-07-22T14:26:40.513Z,56.55
2017-07-22T14:29:08.041Z,56.51
2017-07-22T14:31:35.541Z,56.49
2017-07-22T14:34:03.074Z,56.42
2017-07-22T14:36:30.573Z,56.42
2017-07-22T14:38:58.098Z,56.41
2017-07-22T14:41:25.593Z,56.43
2017-07-22T14:43:53.126Z,56.47
2017-07-22T14:46:20.689Z,56.44
2017-07-22T14:48:48.281Z,56.41
2017-07-22T14:51:15.810Z,56.38
2017-07-22T14:53:43.318Z,56.45
2017-07-22T14:56:10.858Z,56.51
2017-07-22T14:58:38.364Z,56.50
2017-07-22T15:01:05.890Z,56.53
2017-07-22T15:03:33.433Z,56.52
2017-07-22T15:06:00.965Z,56.48
2017-07-22T15:08:28.457Z,56.48
2017-07-22T15:10:55.985Z,56.49
2017-07-22T15:13:23.479Z,56.48
2017-07-22T15:15:51.014Z,56.43
2017-07-22T15:18:22.353Z,56.43
2017-07-22T15:20:49.857Z,56.41
2017-07-22T15:23:17.385Z,56.40
2017-07-22T15:25:44.900Z,56.44
2017-07-22T15:28:12.434Z,56.47
2017-07-22T15:30:39.946Z,56.52
2017-07-22T15:33:07.474Z,56.55
2017-07-22T15:35:34.990Z,56.64
2017-07-22T15:38:02.525Z,56.76
2017-07-22T15:40:30.046Z,56.76
2017-07-22T15:42:57.573Z,56.81
2017-07-22T15:45:25.074Z,56.90
2017-07-22T15:50:45.674Z,57.03
2017-07-22T15:53:13.233Z,57.02
2017-07-22T15:55:40.787Z,57.02
2017-07-22T15:58:08.298Z,57.03
2017-07-22T16:00:35.857Z,57.06
2017-07-22T16:03:03.454Z,57.09
2017-07-22T16:05:30.975Z,57.09
2017-07-22T16:07:58.555Z,57.09
2017-07-22T16:10:26.086Z,57.12
2017-07-22T16:12:53.587Z,57.15
2017-07-22T16:15:21.112Z,57.14
2017-07-22T16:17:48.626Z,57.13
2017-07-22T16:20:16.154Z,57.09
2017-07-22T16:22:43.657Z,57.12
2017-07-22T16:25:11.154Z,57.09
2017-07-22T16:27:38.682Z,57.08
2017-07-22T16:30:06.438Z,57.08
2017-07-22T16:32:33.979Z,57.06
2017-07-22T16:35:01.477Z,57.08
2017-07-22T16:37:29.221Z,57.11
2017-07-22T16:39:56.740Z,57.10
2017-07-22T16:42:24.269Z,57.10
2017-07-22T16:44:51.777Z,57.10
2017-07-22T16:47:19.328Z,57.07
2017-07-22T16:49:46.818Z,57.05
2017-07-22T16:52:14.324Z,57.05
2017-07-22T16:54:42.081Z,57.01
2017-07-22T16:57:09.981Z,57.02
2017-07-22T16:59:37.501Z,56.97
2017-07-22T17:02:04.997Z,56.98
2017-07-22T17:04:32.522Z,56.98
2017-07-22T17:07:00.025Z,56.94
2017-07-22T17:09:27.553Z,56.96
2017-07-22T17:11:55.051Z,56.98
2017-07-22T17:14:22.559Z,56.98
2017-07-22T17:16:50.090Z,56.99
2017-07-22T17:19:17.582Z,56.95
2017-07-22T17:21:45.106Z,56.93
2017-07-22T17:24:12.735Z,56.93
2017-07-22T17:26:40.262Z,56.93
2017-07-22T17:29:07.781Z,56.95
2017-07-22T17:31:35.308Z,56.95
2017-07-22T17:34:02.808Z,56.93
2017-07-22T17:36:30.333Z,56.93
2017-07-22T17:38:57.838Z,56.88
2017-07-22T17:41:25.378Z,56.88
2017-07-22T17:43:52.906Z,56.87
2017-07-22T17:46:21.124Z,56.87
2017-07-22T17:48:48.642Z,56.88
2017-07-22T17:51:16.382Z,56.87
2017-07-22T17:53:43.918Z,56.88
2017-07-22T17:56:11.422Z,56.88
2017-07-22T17:58:38.967Z,56.87
2017-07-22T18:01:06.490Z,56.85
2017-07-22T18:03:34.014Z,56.84
2017-07-22T18:06:01.526Z,56.82
2017-07-22T18:08:29.054Z,56.81
2017-07-22T18:10:56.549Z,56.82
2017-07-22T18:13:24.319Z,56.79
2017-07-22T18:15:51.830Z,56.78
